Latest Weather Observations for Wudinna Airport

IDS60801

Issued at 6:21 pm CST Wednesday 19 September 2018 (issued every 10 minutes, with the page automatically refreshed every 10 minutes)

About weather observations | Map of weather stations | Latest weather observations for SA | Other Formats
Station Details ID: 018083 Name: WUDINNA AERO Lat: -33.04 Lon: 135.45 Height: 86.4 m
Data from the previous 72 hours. | See also: Recent months at Wudinna Airport
Date/Time
CST
Temp
°C
App
Temp
°C
Dew
Point
°C
Rel
Hum
%
Delta-T
°C
Wind Press
QNH
hPa
Press
MSL
hPa
Rain since
9am
mm
Dir  Spd
km/h
Gust
km/h
Spd
kts
Gust
kts
19/06:00pm 13.7 9.0 6.1 60 3.6 WSW 20 28 11 15 1022.3 1022.2 0.0
19/05:30pm 14.1 8.1 5.5 56 4.1 WSW 26 32 14 17 1022.0 1021.9 0.0
19/05:00pm 14.9 9.4 5.7 54 4.4 SW 24 32 13 17 1021.7 1021.6 0.0
19/04:30pm 15.1 9.3 4.5 49 4.9 SW 24 30 13 16 1021.6 1021.5 0.0
19/04:00pm 15.4 8.4 4.2 47 5.2 SSW 30 37 16 20 1021.5 1021.4 0.0
19/03:30pm 17.5 10.8 3.8 40 6.4 WSW 28 39 15 21 1021.3 1021.2 0.0
19/03:00pm 16.4 9.0 4.1 44 5.7 SW 32 44 17 24 1021.3 1021.2 0.0
19/02:30pm 16.4 10.4 3.1 41 6.1 SW 24 37 13 20 1021.1 1021.0 0.0
19/02:00pm 17.3 11.0 3.6 40 6.4 SW 26 37 14 20 1021.1 1021.0 0.0
19/01:30pm 16.6 9.9 3.7 42 6.0 WSW 28 35 15 19 1021.3 1021.2 0.0
19/01:00pm 17.1 11.6 4.1 42 6.1 WSW 22 33 12 18 1021.4 1021.3 0.0
19/12:30pm 16.4 11.4 4.4 45 5.6 WSW 20 28 11 15 1021.5 1021.4 0.0
19/12:00pm 15.3 10.0 5.2 51 4.8 WSW 22 32 12 17 1021.7 1021.6 0.0
19/11:30am 15.8 10.6 7.1 56 4.3 W 24 33 13 18 1022.0 1021.9 0.0
19/11:00am 14.6 9.8 5.4 54 4.4 W 20 28 11 15 1022.2 1022.1 0.0
19/10:30am 12.7 7.0 6.7 67 2.9 WSW 26 33 14 18 1022.2 1022.1 0.0
19/10:00am 13.9 8.7 5.3 56 4.0 WSW 22 32 12 17 1022.1 1022.0 0.0
19/09:30am 13.5 10.8 7.5 67 2.9 SW 11 19 6 10 1022.1 1022.0 0.0
19/09:00am 11.9 9.3 7.8 76 2.0 W 11 15 6 8 1022.0 1021.9 0.2
19/08:30am 10.5 6.7 7.6 82 1.4 WNW 17 20 9 11 1021.7 1021.6 0.2
19/08:00am 9.7 6.3 7.6 87 1.0 NW 15 19 8 10 1021.3 1021.2 0.2
19/07:30am 8.9 5.5 7.5 91 0.7 NW 15 17 8 9 1020.9 1020.8 0.2
19/07:00am 7.3 4.0 6.2 93 0.5 NW 13 17 7 9 1020.3 1020.2 0.2
19/06:30am 6.8 3.3 5.6 92 0.5 WNW 13 15 7 8 1020.1 1020.0 0.2
19/06:00am 7.7 4.4 6.6 93 0.5 WNW 13 15 7 8 1019.9 1019.8 0.2
19/05:30am 7.7 4.1 6.8 94 0.4 WNW 15 20 8 11 1019.7 1019.6 0.2
19/05:00am 4.9 1.9 4.2 95 0.3 NW 9 17 5 9 1019.7 1019.6 0.2
19/04:30am 4.2 0.7 3.3 94 0.4 NW 11 15 6 8 1019.0 1019.0 0.2
19/04:00am 4.5 0.2 3.5 93 0.4 NW 15 15 8 8 1018.9 1018.9 0.2
19/03:30am 6.2 2.6 5.0 92 0.5 WNW 13 17 7 9 1019.0 1019.0 0.2
19/03:00am 7.6 4.7 6.4 92 0.5 NW 11 15 6 8 1019.2 1019.1 0.2
19/02:30am 7.9 4.7 6.8 93 0.5 WNW 13 17 7 9 1019.3 1019.2 0.2
19/02:00am 7.2 3.8 6.1 93 0.5 WNW 13 17 7 9 1019.7 1019.6 0.2
19/01:30am 5.5 2.2 4.3 92 0.5 NW 11 13 6 7 1019.8 1019.7 0.2
19/01:00am 5.7 1.7 4.7 93 0.4 WNW 15 19 8 10 1020.0 1019.9 0.2
19/12:30am 5.2 1.0 3.9 91 0.5 WNW 15 17 8 9 1020.1 1020.0 0.2
19/12:00am 5.4 2.7 3.6 88 0.8 NW 7 11 4 6 1020.0 1019.9 0.2
 
Date/Time
CST
Temp
°C
App
Temp
°C
Dew
Point
°C
Rel
Hum
%
Delta-T
°C
Wind Press
QNH
hPa
Press
MSL
hPa
Rain since
9am
mm
Dir  Spd
km/h
Gust
km/h
Spd
kts
Gust
kts
18/11:30pm 6.2 3.5 3.9 85 1.0 NW 7 9 4 5 1020.1 1020.0 0.2
18/11:00pm 8.0 4.5 5.6 85 1.1 W 13 20 7 11 1020.4 1020.3 0.2
18/10:30pm 7.3 4.3 4.1 80 1.4 W 9 13 5 7 1020.4 1020.3 0.2
18/10:00pm 7.6 3.6 4.7 82 1.3 WNW 15 17 8 9 1020.3 1020.2 0.2
18/09:30pm 5.9 1.7 3.9 87 0.8 WNW 15 19 8 10 1020.0 1019.9 0.2
18/09:00pm 5.5 1.2 3.2 85 1.0 WNW 15 17 8 9 1019.9 1019.8 0.2
18/08:30pm 6.5 2.5 2.8 77 1.5 WNW 13 17 7 9 1019.7 1019.6 0.2
18/08:00pm 9.2 5.3 3.6 68 2.4 WSW 13 15 7 8 1019.3 1019.2 0.2
18/07:30pm 10.4 6.2 3.9 64 2.9 WSW 15 19 8 10 1018.8 1018.8 0.2
18/07:00pm 12.1 7.0 4.1 58 3.6 SW 20 28 11 15 1018.4 1018.4 0.2
18/06:30pm 11.6 5.9 2.6 54 3.9 WSW 22 30 12 16 1018.2 1018.2 0.2
18/06:00pm 12.9 5.2 2.5 49 4.6 SW 32 43 17 23 1017.8 1017.8 0.2
18/05:30pm 13.7 6.5 3.2 49 4.7 SW 30 41 16 22 1017.2 1017.2 0.2
18/05:00pm 14.3 6.7 3.7 49 4.8 SW 33 46 18 25 1016.8 1016.8 0.2
18/04:45pm 15.5 8.1 3.9 46 5.4 SW 32 50 17 27 1016.5 1016.5 0.2
18/04:30pm 14.8 7.4 4.8 51 4.7 WSW 33 43 18 23 1016.3 1016.3 0.2
18/04:00pm 15.9 8.5 5.2 49 5.1 WSW 33 43 18 23 1016.1 1016.1 0.2
18/03:30pm 15.1 7.3 5.0 51 4.8 WSW 35 52 19 28 1015.9 1015.9 0.2
18/03:03pm 16.0 8.5 4.4 46 5.4 WSW 33 52 18 28 1015.7 1015.7 0.2
18/03:00pm 16.4 8.7 3.5 42 6.0 WSW 33 43 18 23 1015.6 1015.6 0.2
18/02:30pm 16.9 9.1 4.9 45 5.7 SW 35 52 19 28 1015.7 1015.7 0.2
18/02:14pm 17.0 9.2 4.7 44 5.9 SW 35 54 19 29 1015.5 1015.5 0.0
18/02:00pm 17.6 10.1 3.5 39 6.6 WSW 32 46 17 25 1015.6 1015.6 0.0
18/01:45pm 16.4 9.1 2.4 39 6.3 WSW 30 48 16 26 1015.8 1015.8 0.0
18/01:30pm 16.5 7.8 2.2 38 6.4 SW 37 50 20 27 1015.5 1015.5 0.0
18/01:00pm 16.3 9.8 4.7 46 5.5 WSW 28 39 15 21 1015.6 1015.6 0.0
18/12:30pm 16.9 11.6 7.0 52 4.9 SW 24 37 13 20 1015.9 1015.9 0.0
18/12:14pm 14.4 8.4 7.0 61 3.6 SW 28 43 15 23 1016.2 1016.2 0.0
18/12:00pm 14.6 10.8 9.8 73 2.5 SW 20 32 11 17 1016.2 1016.2 0.0
18/11:30am 13.1 6.2 9.0 76 2.1 WSW 35 54 19 29 1016.1 1016.1 0.0
18/11:04am 13.9 7.9 7.2 64 3.3 SW 28 46 15 25 1016.1 1016.1 0.0
18/11:00am 14.5 9.7 7.3 62 3.6 SW 22 32 12 17 1016.0 1016.0 0.0
18/10:30am 14.2 7.8 8.4 68 2.9 SW 32 41 17 22 1015.9 1015.9 0.0
18/10:00am 16.1 9.7 6.8 54 4.6 WSW 30 39 16 21 1015.5 1015.5 0.0
18/09:30am 15.6 10.6 6.6 55 4.4 WSW 22 35 12 19 1015.7 1015.7 0.0
18/09:00am 13.9 9.3 6.7 62 3.5 W 20 28 11 15 1015.8 1015.8 0.2
18/08:30am 12.3 8.4 7.0 70 2.6 WNW 17 22 9 12 1016.1 1016.1 0.2
18/08:00am 10.8 8.2 7.7 81 1.5 WNW 11 17 6 9 1015.4 1015.4 0.2
18/07:30am 9.8 7.2 7.7 87 1.0 NW 11 13 6 7 1015.5 1015.5 0.2
18/07:00am 10.0 7.5 8.3 89 0.8 WSW 11 15 6 8 1015.2 1015.2 0.2
18/06:30am 9.8 7.2 7.9 88 0.9 W 11 15 6 8 1015.2 1015.2 0.2
18/06:00am 10.2 7.0 8.3 88 0.9 NW 15 22 8 12 1015.7 1015.7 0.2
18/05:30am 10.5 8.4 8.1 85 1.2 WSW 9 13 5 7 1014.7 1014.7 0.0
18/05:00am 11.2 8.2 7.7 79 1.7 WSW 13 19 7 10 1014.8 1014.8 0.0
18/04:30am 11.6 8.1 7.1 74 2.2 WSW 15 20 8 11 1014.4 1014.4 0.0
18/04:00am 11.6 8.9 7.5 76 2.0 SW 11 19 6 10 1013.9 1013.8 0.0
18/03:30am 12.1 8.8 8.0 76 2.0 WSW 15 20 8 11 1014.0 1013.9 0.0
18/03:00am 12.2 8.6 8.3 77 1.9 SW 17 24 9 13 1013.6 1013.5 0.0
18/02:30am 12.7 8.9 9.2 79 1.8 WSW 19 24 10 13 1013.7 1013.6 0.0
18/02:00am 12.6 9.3 9.6 82 1.5 WSW 17 20 9 11 1013.6 1013.5 0.0
18/01:30am 12.3 9.4 9.7 84 1.3 W 15 19 8 10 1013.7 1013.6 0.0
18/01:00am 10.5 7.7 8.4 87 1.0 W 13 15 7 8 1013.3 1013.2 0.0
18/12:30am 10.6 7.6 7.7 82 1.4 WNW 13 17 7 9 1012.4 1012.3 0.0
18/12:00am 10.5 7.8 7.2 80 1.6 NW 11 13 6 7 1012.7 1012.6 0.0
 
Date/Time
CST
Temp
°C
App
Temp
°C
Dew
Point
°C
Rel
Hum
%
Delta-T
°C
Wind Press
QNH
hPa
Press
MSL
hPa
Rain since
9am
mm
Dir  Spd
km/h
Gust
km/h
Spd
kts
Gust
kts
17/11:30pm 11.1 8.4 5.8 70 2.5 WNW 9 13 5 7 1012.6 1012.5 0.0
17/11:00pm 12.3 7.6 3.3 54 4.0 W 17 20 9 11 1012.6 1012.5 0.0
17/10:30pm 14.0 7.8 -5.2 26 7.2 WNW 19 24 10 13 1012.0 1011.9 0.0
17/10:00pm 15.1 8.4 -7.7 20 8.2 N 20 24 11 13 1010.9 1010.8 0.0
17/09:30pm 15.4 8.4 -7.4 20 8.3 N 22 28 12 15 1010.9 1010.8 0.0
17/09:00pm 16.2 8.8 -7.4 19 8.6 N 24 30 13 16 1010.8 1010.7 0.0
17/08:30pm 17.1 10.1 -7.4 18 9.1 N 22 30 12 16 1010.7 1010.6 0.0
17/08:00pm 16.6 9.7 -6.4 20 8.6 N 22 28 12 15 1010.7 1010.6 0.0
17/07:30pm 16.5 10.0 -5.9 21 8.5 N 20 24 11 13 1010.7 1010.6 0.0
17/07:00pm 16.6 10.7 -5.2 22 8.4 N 17 20 9 11 1010.9 1010.8 0.0
17/06:30pm 18.4 12.5 -5.6 19 9.4 NNW 17 19 9 10 1010.8 1010.7 0.0
17/06:00pm 20.9 14.4 -5.8 16 10.6 NNW 20 26 11 14 1010.8 1010.7 0.0
17/05:30pm 22.1 14.5 -5.7 15 11.2 NNW 26 33 14 18 1010.6 1010.5 0.0
17/05:00pm 23.1 14.7 -5.8 14 11.8 NNW 30 43 16 23 1010.5 1010.4 0.0
17/04:30pm 23.4 14.7 -5.6 14 11.9 NNW 32 44 17 24 1010.6 1010.5 0.0
17/04:00pm 23.6 15.3 -5.4 14 11.9 NNW 30 43 16 23 1010.7 1010.6 0.0
17/03:30pm 23.4 15.0 -5.6 14 11.9 NNW 30 41 16 22 1010.9 1010.8 0.0
17/03:22pm 23.6 15.3 -5.4 14 11.9 N 30 48 16 26 1010.9 1010.8 0.0
17/03:00pm 23.4 14.7 -5.6 14 11.9 NNW 32 44 17 24 1011.1 1011.0 0.0
17/02:32pm 23.1 14.4 -4.9 15 11.6 N 32 54 17 29 1011.4 1011.3 0.0
17/02:30pm 22.9 14.5 -6.0 14 11.7 N 30 44 16 24 1011.5 1011.4 0.0
17/02:00pm 22.5 13.1 -6.3 14 11.5 N 35 46 19 25 1012.3 1012.2 0.0
17/01:41pm 22.5 13.6 -5.4 15 11.4 N 33 52 18 28 1012.5 1012.4 0.0
17/01:30pm 21.8 12.4 -5.9 15 11.1 N 35 52 19 28 1012.7 1012.6 0.0
17/01:21pm 21.9 13.1 -5.9 15 11.2 N 32 50 17 27 1013.0 1012.9 0.0
17/01:00pm 21.6 12.7 -5.3 16 10.9 NNW 33 50 18 27 1013.6 1013.5 0.0
17/12:30pm 21.1 12.5 -4.1 18 10.4 N 32 48 17 26 1014.4 1014.4 0.0
17/12:03pm 20.6 11.3 -5.3 17 10.4 N 35 56 19 30 1014.9 1014.9 0.0
17/12:00pm 21.0 11.9 -3.5 19 10.2 N 35 46 19 25 1015.0 1015.0 0.0
17/11:30am 20.1 10.9 -4.9 18 10.0 NNW 35 50 19 27 1015.6 1015.6 0.0
17/11:00am 19.4 10.2 -4.8 19 9.7 N 35 54 19 29 1016.2 1016.2 0.0
17/10:41am 19.0 9.4 -4.4 20 9.4 N 37 56 20 30 1016.5 1016.5 0.0
17/10:30am 18.5 8.9 -4.2 21 9.1 N 37 54 20 29 1016.6 1016.6 0.0
17/10:00am 18.4 9.3 -3.7 22 9.0 N 35 50 19 27 1017.3 1017.3 0.0
17/09:31am 17.3 8.6 -3.4 24 8.3 N 33 52 18 28 1017.5 1017.5 0.0
17/09:30am 17.3 8.7 -2.9 25 8.2 N 33 48 18 26 1017.5 1017.5 0.0
17/09:00am 15.9 7.4 -3.0 27 7.6 N 32 48 17 26 1017.8 1017.8 0.0
17/08:30am 14.1 6.9 -2.3 32 6.5 N 26 37 14 20 1017.9 1017.9 0.0
17/08:00am 12.3 5.4 -2.7 35 5.8 N 24 32 13 17 1017.9 1017.9 0.0
17/07:30am 11.3 4.9 -1.8 40 5.1 N 22 32 12 17 1018.0 1018.0 0.0
17/07:00am 9.5 3.1 -1.8 45 4.3 N 22 32 12 17 1018.1 1018.1 0.0
17/06:30am 9.1 3.1 -1.6 47 4.1 N 20 28 11 15 1018.2 1018.2 0.0
17/06:00am 5.1 1.3 -1.1 64 2.3 NE 9 13 5 7 1018.2 1018.2 0.0
17/05:30am 5.8 0.8 -0.9 62 2.5 NNE 15 17 8 9 1018.2 1018.2 0.0
17/05:00am 8.1 2.4 -0.9 53 3.5 NNE 19 24 10 13 1018.2 1018.2 0.0
17/04:30am 5.5 0.5 -1.0 63 2.4 NNE 15 19 8 10 1018.2 1018.2 0.0
17/04:00am 5.5 0.5 -1.2 62 2.5 NNE 15 22 8 12 1018.3 1018.3 0.0
17/03:30am 6.8 1.4 -1.1 57 3.0 N 17 24 9 13 1018.5 1018.5 0.0
17/03:00am 7.1 2.2 -0.4 59 2.9 N 15 20 8 11 1018.8 1018.8 0.0
17/02:30am 3.2 -0.4 0.6 83 1.0 NNE 9 13 5 7 1019.4 1019.3 0.0
17/02:00am 2.1 -1.6 0.2 87 0.7 NNE 9 13 5 7 1019.7 1019.6 0.0
17/01:30am 2.4 -1.2 0.6 88 0.7 NE 9 13 5 7 1020.1 1020.0 0.0
17/01:00am 1.6 -2.5 0.1 90 0.6 NE 11 13 6 7 1020.5 1020.4 0.0
17/12:30am 2.5 -1.0 1.0 90 0.6 NE 9 11 5 6 1021.0 1020.9 0.0
17/12:00am 2.4 -0.8 0.5 87 0.7 N 7 9 4 5 1021.5 1021.4 0.0
 
Date/Time
CST
Temp
°C
App
Temp
°C
Dew
Point
°C
Rel
Hum
%
Delta-T
°C
Wind Press
QNH
hPa
Press
MSL
hPa
Rain since
9am
mm
Dir  Spd
km/h
Gust
km/h
Spd
kts
Gust
kts
16/11:30pm 2.7 -0.9 0.4 85 0.9 NNE 9 11 5 6 1022.2 1022.1 0.0
16/11:00pm 3.7 -0.1 1.7 87 0.8 NE 11 13 6 7 1022.9 1022.8 0.0
16/10:30pm 3.8 -0.4 1.4 84 0.9 NE 13 15 7 8 1022.9 1022.8 0.0
16/10:00pm 3.9 0.1 1.6 85 0.9 NE 11 13 6 7 1023.3 1023.2 0.0
16/09:30pm 4.6 1.0 0.9 77 1.4 ENE 9 11 5 6 1023.6 1023.5 0.0
16/09:00pm 6.7 3.7 2.0 72 1.9 S 7 9 4 5 1023.6 1023.5 0.0
16/08:30pm 7.4 4.2 2.9 73 1.9 SSW 9 9 5 5 1023.7 1023.6 0.0
16/08:00pm 8.6 5.4 2.8 67 2.5 SW 9 11 5 6 1023.4 1023.3 0.0
16/07:30pm 6.9 2.3 1.8 70 2.1 NE 15 17 8 9 1023.0 1022.9 0.0
16/07:00pm 9.9 8.2 1.8 57 3.4 CALM 0 0 0 0 1022.8 1022.7 0.0
16/06:30pm 13.7 12.1 2.3 46 5.0 CALM 0 0 0 0 1022.7 1022.6 0.0

Other Formats:

Comma delimited format used in spreadsheet applications
http://www.bom.gov.au/fwo/IDS60801/IDS60801.95654.axf

JavaScript Object Notation format (JSON) in row-major order
http://www.bom.gov.au/fwo/IDS60801/IDS60801.95654.json